sensor_id;sensor_type;location;lat;lon;timestamp;P1;durP1;ratioP1;P2;durP2;ratioP2
17790;SDS011;9019;48.132;-1.210;2023-04-30T00:01:47;27.00;;;18.50;;
17790;SDS011;9019;48.132;-1.210;2023-04-30T00:04:15;25.67;;;18.87;;
17790;SDS011;9019;48.132;-1.210;2023-04-30T00:06:43;23.07;;;17.67;;
17790;SDS011;9019;48.132;-1.210;2023-04-30T00:09:10;29.20;;;19.23;;
17790;SDS011;9019;48.132;-1.210;2023-04-30T00:11:38;27.33;;;19.43;;
17790;SDS011;9019;48.132;-1.210;2023-04-30T00:14:05;25.40;;;19.30;;
17790;SDS011;9019;48.132;-1.210;2023-04-30T00:16:32;26.37;;;19.77;;
17790;SDS011;9019;48.132;-1.210;2023-04-30T00:18:59;26.00;;;18.23;;
17790;SDS011;9019;48.132;-1.210;2023-04-30T00:21:26;25.43;;;19.33;;
17790;SDS011;9019;48.132;-1.210;2023-04-30T00:23:55;25.33;;;18.87;;
17790;SDS011;9019;48.132;-1.210;2023-04-30T00:26:24;24.60;;;19.33;;
17790;SDS011;9019;48.132;-1.210;2023-04-30T00:28:51;24.67;;;18.63;;
17790;SDS011;9019;48.132;-1.210;2023-04-30T00:31:20;25.33;;;18.07;;
17790;SDS011;9019;48.132;-1.210;2023-04-30T00:33:47;25.47;;;18.23;;
17790;SDS011;9019;48.132;-1.210;2023-04-30T00:36:14;24.63;;;17.50;;
17790;SDS011;9019;48.132;-1.210;2023-04-30T00:38:44;22.97;;;17.60;;
17790;SDS011;9019;48.132;-1.210;2023-04-30T00:41:12;24.60;;;17.43;;
17790;SDS011;9019;48.132;-1.210;2023-04-30T00:43:40;24.60;;;17.37;;
17790;SDS011;9019;48.132;-1.210;2023-04-30T00:46:08;21.47;;;16.73;;
17790;SDS011;9019;48.132;-1.210;2023-04-30T00:48:35;27.87;;;17.80;;
17790;SDS011;9019;48.132;-1.210;2023-04-30T00:51:04;23.43;;;16.67;;
17790;SDS011;9019;48.132;-1.210;2023-04-30T00:53:36;26.70;;;17.93;;
17790;SDS011;9019;48.132;-1.210;2023-04-30T00:56:03;24.37;;;17.33;;
17790;SDS011;9019;48.132;-1.210;2023-04-30T00:58:36;26.23;;;18.10;;
17790;SDS011;9019;48.132;-1.210;2023-04-30T01:01:03;26.00;;;17.80;;
17790;SDS011;9019;48.132;-1.210;2023-04-30T01:03:33;24.20;;;17.63;;
17790;SDS011;9019;48.132;-1.210;2023-04-30T01:06:00;26.63;;;18.23;;
17790;SDS011;9019;48.132;-1.210;2023-04-30T01:08:28;25.30;;;18.17;;
17790;SDS011;9019;48.132;-1.210;2023-04-30T01:10:59;30.87;;;19.30;;
17790;SDS011;9019;48.132;-1.210;2023-04-30T01:13:33;26.80;;;18.50;;
17790;SDS011;9019;48.132;-1.210;2023-04-30T01:16:10;28.63;;;18.17;;
17790;SDS011;9019;48.132;-1.210;2023-04-30T01:18:45;27.27;;;18.87;;
17790;SDS011;9019;48.132;-1.210;2023-04-30T01:21:17;27.70;;;18.67;;
17790;SDS011;9019;48.132;-1.210;2023-04-30T01:23:53;28.03;;;18.00;;
17790;SDS011;9019;48.132;-1.210;2023-04-30T01:26:43;23.87;;;16.97;;
17790;SDS011;9019;48.132;-1.210;2023-04-30T01:29:19;25.30;;;18.07;;
17790;SDS011;9019;48.132;-1.210;2023-04-30T01:31:49;24.00;;;17.73;;
17790;SDS011;9019;48.132;-1.210;2023-04-30T01:34:16;25.77;;;16.93;;
17790;SDS011;9019;48.132;-1.210;2023-04-30T01:36:49;24.47;;;17.00;;
17790;SDS011;9019;48.132;-1.210;2023-04-30T01:39:38;24.13;;;16.57;;
17790;SDS011;9019;48.132;-1.210;2023-04-30T01:42:17;25.17;;;16.67;;
17790;SDS011;9019;48.132;-1.210;2023-04-30T01:44:57;23.47;;;17.10;;
17790;SDS011;9019;48.132;-1.210;2023-04-30T01:47:35;27.90;;;18.77;;
17790;SDS011;9019;48.132;-1.210;2023-04-30T01:50:08;30.87;;;20.23;;
17790;SDS011;9019;48.132;-1.210;2023-04-30T01:52:45;33.47;;;19.77;;
17790;SDS011;9019;48.132;-1.210;2023-04-30T01:55:17;32.47;;;20.13;;
17790;SDS011;9019;48.132;-1.210;2023-04-30T01:57:48;31.50;;;20.40;;
17790;SDS011;9019;48.132;-1.210;2023-04-30T02:00:20;34.50;;;20.10;;
17790;SDS011;9019;48.132;-1.210;2023-04-30T02:02:47;34.07;;;21.03;;
17790;SDS011;9019;48.132;-1.210;2023-04-30T02:05:14;35.10;;;21.30;;
17790;SDS011;9019;48.132;-1.210;2023-04-30T02:07:42;33.93;;;21.93;;
17790;SDS011;9019;48.132;-1.210;2023-04-30T02:10:10;35.87;;;21.17;;
17790;SDS011;9019;48.132;-1.210;2023-04-30T02:12:37;33.43;;;20.50;;
17790;SDS011;9019;48.132;-1.210;2023-04-30T02:15:05;31.67;;;20.17;;
17790;SDS011;9019;48.132;-1.210;2023-04-30T02:17:34;36.97;;;20.77;;
17790;SDS011;9019;48.132;-1.210;2023-04-30T02:20:01;38.37;;;21.97;;
17790;SDS011;9019;48.132;-1.210;2023-04-30T02:22:28;34.63;;;20.93;;
17790;SDS011;9019;48.132;-1.210;2023-04-30T02:24:55;36.90;;;22.47;;
17790;SDS011;9019;48.132;-1.210;2023-04-30T02:27:23;39.93;;;22.70;;
17790;SDS011;9019;48.132;-1.210;2023-04-30T02:29:51;37.20;;;22.87;;
17790;SDS011;9019;48.132;-1.210;2023-04-30T02:32:18;39.07;;;22.80;;
17790;SDS011;9019;48.132;-1.210;2023-04-30T02:34:47;39.47;;;22.80;;
17790;SDS011;9019;48.132;-1.210;2023-04-30T02:37:14;38.93;;;22.43;;
17790;SDS011;9019;48.132;-1.210;2023-04-30T02:39:41;38.00;;;21.63;;
17790;SDS011;9019;48.132;-1.210;2023-04-30T02:42:08;41.73;;;23.03;;
17790;SDS011;9019;48.132;-1.210;2023-04-30T02:44:36;35.20;;;21.30;;
17790;SDS011;9019;48.132;-1.210;2023-04-30T02:47:03;34.57;;;21.57;;
17790;SDS011;9019;48.132;-1.210;2023-04-30T02:49:30;35.57;;;21.60;;
17790;SDS011;9019;48.132;-1.210;2023-04-30T02:51:59;34.80;;;20.83;;
17790;SDS011;9019;48.132;-1.210;2023-04-30T02:54:26;33.57;;;20.97;;
17790;SDS011;9019;48.132;-1.210;2023-04-30T02:56:53;35.50;;;20.50;;
17790;SDS011;9019;48.132;-1.210;2023-04-30T02:59:20;36.17;;;21.33;;
17790;SDS011;9019;48.132;-1.210;2023-04-30T03:01:47;32.40;;;20.27;;
17790;SDS011;9019;48.132;-1.210;2023-04-30T03:04:15;32.07;;;19.20;;
17790;SDS011;9019;48.132;-1.210;2023-04-30T03:06:42;31.47;;;19.10;;
17790;SDS011;9019;48.132;-1.210;2023-04-30T03:09:11;31.17;;;19.47;;
17790;SDS011;9019;48.132;-1.210;2023-04-30T03:11:39;33.23;;;20.37;;
17790;SDS011;9019;48.132;-1.210;2023-04-30T03:14:06;34.60;;;20.27;;
17790;SDS011;9019;48.132;-1.210;2023-04-30T03:16:33;33.80;;;19.50;;
17790;SDS011;9019;48.132;-1.210;2023-04-30T03:19:00;32.43;;;19.77;;
17790;SDS011;9019;48.132;-1.210;2023-04-30T03:21:28;32.23;;;20.37;;
17790;SDS011;9019;48.132;-1.210;2023-04-30T03:23:55;30.97;;;19.83;;
17790;SDS011;9019;48.132;-1.210;2023-04-30T03:26:24;31.93;;;19.37;;
17790;SDS011;9019;48.132;-1.210;2023-04-30T03:28:51;29.20;;;19.27;;
17790;SDS011;9019;48.132;-1.210;2023-04-30T03:31:19;29.97;;;19.70;;
17790;SDS011;9019;48.132;-1.210;2023-04-30T03:33:47;31.67;;;18.80;;
17790;SDS011;9019;48.132;-1.210;2023-04-30T03:36:14;28.30;;;18.83;;
17790;SDS011;9019;48.132;-1.210;2023-04-30T03:38:41;27.53;;;18.13;;
17790;SDS011;9019;48.132;-1.210;2023-04-30T03:41:08;29.73;;;19.03;;
17790;SDS011;9019;48.132;-1.210;2023-04-30T03:43:37;28.60;;;18.53;;
17790;SDS011;9019;48.132;-1.210;2023-04-30T03:46:04;29.70;;;18.53;;
17790;SDS011;9019;48.132;-1.210;2023-04-30T03:48:31;28.20;;;19.13;;
17790;SDS011;9019;48.132;-1.210;2023-04-30T03:50:58;33.20;;;18.80;;
17790;SDS011;9019;48.132;-1.210;2023-04-30T03:53:25;29.47;;;18.70;;
17790;SDS011;9019;48.132;-1.210;2023-04-30T03:55:53;27.87;;;18.67;;
17790;SDS011;9019;48.132;-1.210;2023-04-30T03:58:20;27.10;;;18.37;;
17790;SDS011;9019;48.132;-1.210;2023-04-30T04:00:48;27.53;;;18.40;;
17790;SDS011;9019;48.132;-1.210;2023-04-30T04:03:16;31.03;;;18.83;;
17790;SDS011;9019;48.132;-1.210;2023-04-30T04:05:44;28.97;;;18.47;;
17790;SDS011;9019;48.132;-1.210;2023-04-30T04:08:11;30.60;;;19.23;;
17790;SDS011;9019;48.132;-1.210;2023-04-30T04:10:39;29.50;;;18.63;;
17790;SDS011;9019;48.132;-1.210;2023-04-30T04:13:06;28.30;;;17.97;;
17790;SDS011;9019;48.132;-1.210;2023-04-30T04:15:33;29.13;;;18.53;;
17790;SDS011;9019;48.132;-1.210;2023-04-30T04:18:02;28.90;;;18.10;;
17790;SDS011;9019;48.132;-1.210;2023-04-30T04:20:31;30.57;;;18.40;;
17790;SDS011;9019;48.132;-1.210;2023-04-30T04:22:58;28.60;;;19.00;;
17790;SDS011;9019;48.132;-1.210;2023-04-30T04:25:25;29.63;;;19.27;;
17790;SDS011;9019;48.132;-1.210;2023-04-30T04:27:52;29.33;;;18.80;;
17790;SDS011;9019;48.132;-1.210;2023-04-30T04:30:19;30.43;;;20.37;;
17790;SDS011;9019;48.132;-1.210;2023-04-30T04:32:47;29.70;;;19.07;;
17790;SDS011;9019;48.132;-1.210;2023-04-30T04:35:19;30.47;;;19.07;;
17790;SDS011;9019;48.132;-1.210;2023-04-30T04:37:46;30.87;;;19.63;;
17790;SDS011;9019;48.132;-1.210;2023-04-30T04:40:13;28.03;;;19.47;;
17790;SDS011;9019;48.132;-1.210;2023-04-30T04:42:40;28.80;;;19.43;;
17790;SDS011;9019;48.132;-1.210;2023-04-30T04:45:08;32.17;;;20.53;;
17790;SDS011;9019;48.132;-1.210;2023-04-30T04:47:35;29.50;;;19.43;;
17790;SDS011;9019;48.132;-1.210;2023-04-30T04:50:02;30.80;;;20.00;;
17790;SDS011;9019;48.132;-1.210;2023-04-30T04:52:32;31.07;;;20.50;;
17790;SDS011;9019;48.132;-1.210;2023-04-30T04:54:59;29.87;;;19.37;;
17790;SDS011;9019;48.132;-1.210;2023-04-30T04:57:26;30.00;;;19.83;;
17790;SDS011;9019;48.132;-1.210;2023-04-30T04:59:54;32.30;;;20.20;;
17790;SDS011;9019;48.132;-1.210;2023-04-30T05:02:21;29.97;;;20.27;;
17790;SDS011;9019;48.132;-1.210;2023-04-30T05:04:48;31.20;;;19.97;;
17790;SDS011;9019;48.132;-1.210;2023-04-30T05:07:15;31.40;;;20.40;;
17790;SDS011;9019;48.132;-1.210;2023-04-30T05:09:45;30.37;;;20.80;;
17790;SDS011;9019;48.132;-1.210;2023-04-30T05:12:12;32.10;;;20.03;;
17790;SDS011;9019;48.132;-1.210;2023-04-30T05:14:39;30.37;;;20.27;;
17790;SDS011;9019;48.132;-1.210;2023-04-30T05:17:07;31.17;;;20.17;;
17790;SDS011;9019;48.132;-1.210;2023-04-30T05:19:34;29.07;;;19.67;;
17790;SDS011;9019;48.132;-1.210;2023-04-30T05:22:01;31.83;;;20.57;;
17790;SDS011;9019;48.132;-1.210;2023-04-30T05:24:28;31.10;;;19.87;;
17790;SDS011;9019;48.132;-1.210;2023-04-30T05:26:57;30.57;;;20.30;;
17790;SDS011;9019;48.132;-1.210;2023-04-30T05:29:26;27.27;;;19.60;;
17790;SDS011;9019;48.132;-1.210;2023-04-30T05:31:54;30.30;;;19.90;;
17790;SDS011;9019;48.132;-1.210;2023-04-30T05:34:21;30.83;;;20.30;;
17790;SDS011;9019;48.132;-1.210;2023-04-30T05:36:48;28.47;;;19.60;;
17790;SDS011;9019;48.132;-1.210;2023-04-30T05:39:15;27.13;;;19.27;;
17790;SDS011;9019;48.132;-1.210;2023-04-30T05:41:42;30.70;;;19.70;;
17790;SDS011;9019;48.132;-1.210;2023-04-30T05:44:11;28.40;;;19.20;;
17790;SDS011;9019;48.132;-1.210;2023-04-30T05:46:38;27.80;;;19.70;;
17790;SDS011;9019;48.132;-1.210;2023-04-30T05:49:05;30.50;;;19.27;;
17790;SDS011;9019;48.132;-1.210;2023-04-30T05:51:32;29.90;;;19.90;;
17790;SDS011;9019;48.132;-1.210;2023-04-30T05:54:00;28.07;;;19.83;;
17790;SDS011;9019;48.132;-1.210;2023-04-30T05:56:27;29.00;;;19.97;;
17790;SDS011;9019;48.132;-1.210;2023-04-30T05:58:54;28.20;;;19.60;;
17790;SDS011;9019;48.132;-1.210;2023-04-30T06:01:23;29.57;;;20.07;;
17790;SDS011;9019;48.132;-1.210;2023-04-30T06:03:52;26.13;;;18.70;;
17790;SDS011;9019;48.132;-1.210;2023-04-30T06:06:20;28.80;;;19.77;;
17790;SDS011;9019;48.132;-1.210;2023-04-30T06:08:47;27.90;;;19.87;;
17790;SDS011;9019;48.132;-1.210;2023-04-30T06:11:14;25.57;;;19.30;;
17790;SDS011;9019;48.132;-1.210;2023-04-30T06:13:41;26.07;;;18.83;;
17790;SDS011;9019;48.132;-1.210;2023-04-30T06:16:08;26.23;;;18.90;;
17790;SDS011;9019;48.132;-1.210;2023-04-30T06:18:37;24.77;;;19.33;;
17790;SDS011;9019;48.132;-1.210;2023-04-30T06:21:04;24.53;;;18.03;;
17790;SDS011;9019;48.132;-1.210;2023-04-30T06:23:31;26.33;;;19.43;;
17790;SDS011;9019;48.132;-1.210;2023-04-30T06:25:59;26.27;;;18.67;;
17790;SDS011;9019;48.132;-1.210;2023-04-30T06:28:26;27.03;;;18.37;;
17790;SDS011;9019;48.132;-1.210;2023-04-30T06:30:54;26.03;;;18.47;;
17790;SDS011;9019;48.132;-1.210;2023-04-30T06:33:21;29.37;;;20.63;;
17790;SDS011;9019;48.132;-1.210;2023-04-30T06:35:49;28.83;;;19.67;;
17790;SDS011;9019;48.132;-1.210;2023-04-30T06:38:19;28.43;;;19.73;;
17790;SDS011;9019;48.132;-1.210;2023-04-30T06:40:46;27.70;;;19.23;;
17790;SDS011;9019;48.132;-1.210;2023-04-30T06:43:13;25.13;;;18.30;;
17790;SDS011;9019;48.132;-1.210;2023-04-30T06:45:40;28.27;;;19.17;;
17790;SDS011;9019;48.132;-1.210;2023-04-30T06:48:08;26.70;;;18.93;;
17790;SDS011;9019;48.132;-1.210;2023-04-30T06:50:35;25.57;;;18.97;;
17790;SDS011;9019;48.132;-1.210;2023-04-30T06:53:10;25.20;;;19.23;;
17790;SDS011;9019;48.132;-1.210;2023-04-30T06:55:37;24.63;;;18.40;;
17790;SDS011;9019;48.132;-1.210;2023-04-30T06:58:04;27.70;;;19.53;;
17790;SDS011;9019;48.132;-1.210;2023-04-30T07:00:32;26.50;;;18.40;;
17790;SDS011;9019;48.132;-1.210;2023-04-30T07:02:59;25.37;;;18.70;;
17790;SDS011;9019;48.132;-1.210;2023-04-30T07:05:28;26.63;;;18.00;;
17790;SDS011;9019;48.132;-1.210;2023-04-30T07:07:55;23.87;;;18.17;;
17790;SDS011;9019;48.132;-1.210;2023-04-30T07:10:24;22.57;;;17.77;;
17790;SDS011;9019;48.132;-1.210;2023-04-30T07:12:51;23.13;;;17.70;;
17790;SDS011;9019;48.132;-1.210;2023-04-30T07:15:18;23.63;;;17.53;;
17790;SDS011;9019;48.132;-1.210;2023-04-30T07:17:46;22.53;;;17.37;;
17790;SDS011;9019;48.132;-1.210;2023-04-30T07:20:13;19.93;;;15.57;;
17790;SDS011;9019;48.132;-1.210;2023-04-30T07:22:40;21.67;;;16.33;;
17790;SDS011;9019;48.132;-1.210;2023-04-30T07:25:09;23.70;;;15.20;;
17790;SDS011;9019;48.132;-1.210;2023-04-30T07:27:38;21.73;;;16.73;;
17790;SDS011;9019;48.132;-1.210;2023-04-30T07:30:06;21.02;;;15.23;;
17790;SDS011;9019;48.132;-1.210;2023-04-30T07:32:34;17.73;;;15.23;;
17790;SDS011;9019;48.132;-1.210;2023-04-30T07:35:02;17.95;;;15.02;;
17790;SDS011;9019;48.132;-1.210;2023-04-30T07:37:30;19.13;;;15.73;;
17790;SDS011;9019;48.132;-1.210;2023-04-30T07:39:57;17.77;;;15.27;;
17790;SDS011;9019;48.132;-1.210;2023-04-30T07:42:24;17.23;;;14.50;;
17790;SDS011;9019;48.132;-1.210;2023-04-30T07:44:53;17.27;;;14.97;;
17790;SDS011;9019;48.132;-1.210;2023-04-30T07:47:20;19.60;;;15.23;;
17790;SDS011;9019;48.132;-1.210;2023-04-30T07:49:47;17.50;;;14.87;;
17790;SDS011;9019;48.132;-1.210;2023-04-30T07:52:15;17.43;;;14.03;;
17790;SDS011;9019;48.132;-1.210;2023-04-30T07:54:42;18.43;;;14.97;;
17790;SDS011;9019;48.132;-1.210;2023-04-30T07:57:09;16.55;;;14.05;;
17790;SDS011;9019;48.132;-1.210;2023-04-30T07:59:36;17.60;;;14.18;;
17790;SDS011;9019;48.132;-1.210;2023-04-30T08:02:05;16.85;;;14.05;;
17790;SDS011;9019;48.132;-1.210;2023-04-30T08:04:32;17.85;;;14.25;;
17790;SDS011;9019;48.132;-1.210;2023-04-30T08:07:00;16.48;;;13.70;;
17790;SDS011;9019;48.132;-1.210;2023-04-30T08:09:28;17.27;;;13.88;;
17790;SDS011;9019;48.132;-1.210;2023-04-30T08:11:55;15.38;;;12.77;;
17790;SDS011;9019;48.132;-1.210;2023-04-30T08:14:22;16.92;;;14.07;;
17790;SDS011;9019;48.132;-1.210;2023-04-30T08:16:50;16.95;;;13.77;;
17790;SDS011;9019;48.132;-1.210;2023-04-30T08:19:18;18.35;;;14.27;;
17790;SDS011;9019;48.132;-1.210;2023-04-30T08:21:45;16.92;;;14.05;;
17790;SDS011;9019;48.132;-1.210;2023-04-30T08:24:12;16.20;;;13.77;;
17790;SDS011;9019;48.132;-1.210;2023-04-30T08:26:40;15.38;;;13.77;;
17790;SDS011;9019;48.132;-1.210;2023-04-30T08:29:07;16.98;;;12.90;;
17790;SDS011;9019;48.132;-1.210;2023-04-30T08:31:34;15.35;;;12.80;;
17790;SDS011;9019;48.132;-1.210;2023-04-30T08:34:01;14.57;;;13.05;;
17790;SDS011;9019;48.132;-1.210;2023-04-30T08:36:30;14.70;;;12.32;;
17790;SDS011;9019;48.132;-1.210;2023-04-30T08:38:57;15.18;;;13.68;;
17790;SDS011;9019;48.132;-1.210;2023-04-30T08:41:26;14.30;;;12.80;;
17790;SDS011;9019;48.132;-1.210;2023-04-30T08:43:58;13.13;;;11.55;;
17790;SDS011;9019;48.132;-1.210;2023-04-30T08:46:28;14.75;;;13.25;;
17790;SDS011;9019;48.132;-1.210;2023-04-30T08:48:56;14.30;;;12.80;;
17790;SDS011;9019;48.132;-1.210;2023-04-30T08:51:23;14.27;;;12.88;;
17790;SDS011;9019;48.132;-1.210;2023-04-30T08:53:53;14.35;;;12.85;;
17790;SDS011;9019;48.132;-1.210;2023-04-30T08:56:21;14.57;;;12.95;;
17790;SDS011;9019;48.132;-1.210;2023-04-30T08:58:49;13.88;;;12.48;;
17790;SDS011;9019;48.132;-1.210;2023-04-30T09:01:16;15.07;;;13.48;;
17790;SDS011;9019;48.132;-1.210;2023-04-30T09:03:43;14.52;;;12.55;;
17790;SDS011;9019;48.132;-1.210;2023-04-30T09:06:14;14.00;;;12.60;;
17790;SDS011;9019;48.132;-1.210;2023-04-30T09:08:41;14.82;;;12.85;;
17790;SDS011;9019;48.132;-1.210;2023-04-30T09:11:23;14.48;;;12.73;;
17790;SDS011;9019;48.132;-1.210;2023-04-30T09:13:51;14.05;;;12.65;;
17790;SDS011;9019;48.132;-1.210;2023-04-30T09:16:18;14.27;;;12.88;;
17790;SDS011;9019;48.132;-1.210;2023-04-30T09:18:46;14.68;;;12.45;;
17790;SDS011;9019;48.132;-1.210;2023-04-30T09:21:13;15.60;;;13.35;;
17790;SDS011;9019;48.132;-1.210;2023-04-30T09:23:52;14.23;;;12.73;;
17790;SDS011;9019;48.132;-1.210;2023-04-30T09:26:20;13.38;;;11.98;;
17790;SDS011;9019;48.132;-1.210;2023-04-30T09:28:54;14.00;;;12.50;;
17790;SDS011;9019;48.132;-1.210;2023-04-30T09:31:22;14.10;;;12.32;;
17790;SDS011;9019;48.132;-1.210;2023-04-30T09:33:50;14.52;;;12.23;;
17790;SDS011;9019;48.132;-1.210;2023-04-30T09:36:17;13.05;;;11.65;;
17790;SDS011;9019;48.132;-1.210;2023-04-30T09:38:44;12.15;;;10.95;;
17790;SDS011;9019;48.132;-1.210;2023-04-30T09:41:20;12.88;;;11.57;;
17790;SDS011;9019;48.132;-1.210;2023-04-30T09:43:47;13.32;;;12.10;;
17790;SDS011;9019;48.132;-1.210;2023-04-30T09:46:16;14.07;;;12.57;;
17790;SDS011;9019;48.132;-1.210;2023-04-30T09:48:44;14.27;;;12.40;;
17790;SDS011;9019;48.132;-1.210;2023-04-30T09:51:13;15.75;;;12.70;;
17790;SDS011;9019;48.132;-1.210;2023-04-30T09:53:41;13.52;;;12.13;;
17790;SDS011;9019;48.132;-1.210;2023-04-30T09:56:10;13.25;;;11.75;;
17790;SDS011;9019;48.132;-1.210;2023-04-30T09:58:39;13.38;;;12.05;;
17790;SDS011;9019;48.132;-1.210;2023-04-30T10:01:08;12.80;;;10.95;;
17790;SDS011;9019;48.132;-1.210;2023-04-30T10:03:38;12.55;;;11.35;;
17790;SDS011;9019;48.132;-1.210;2023-04-30T10:06:06;13.50;;;11.00;;
17790;SDS011;9019;48.132;-1.210;2023-04-30T10:08:35;11.77;;;10.68;;
17790;SDS011;9019;48.132;-1.210;2023-04-30T10:11:05;12.95;;;11.63;;
17790;SDS011;9019;48.132;-1.210;2023-04-30T10:13:34;12.93;;;11.45;;
17790;SDS011;9019;48.132;-1.210;2023-04-30T10:16:06;12.40;;;11.23;;
17790;SDS011;9019;48.132;-1.210;2023-04-30T10:18:34;11.93;;;10.90;;
17790;SDS011;9019;48.132;-1.210;2023-04-30T10:21:06;13.20;;;11.90;;
17790;SDS011;9019;48.132;-1.210;2023-04-30T10:23:36;14.63;;;13.23;;
17790;SDS011;9019;48.132;-1.210;2023-04-30T10:26:03;13.13;;;11.82;;
17790;SDS011;9019;48.132;-1.210;2023-04-30T10:28:31;13.02;;;11.80;;
17790;SDS011;9019;48.132;-1.210;2023-04-30T10:30:58;11.75;;;10.57;;
17790;SDS011;9019;48.132;-1.210;2023-04-30T10:33:28;11.73;;;10.57;;
17790;SDS011;9019;48.132;-1.210;2023-04-30T10:35:58;12.70;;;11.50;;
17790;SDS011;9019;48.132;-1.210;2023-04-30T10:38:30;12.50;;;11.32;;
17790;SDS011;9019;48.132;-1.210;2023-04-30T10:40:57;12.88;;;11.57;;
17790;SDS011;9019;48.132;-1.210;2023-04-30T10:43:25;12.13;;;11.02;;
17790;SDS011;9019;48.132;-1.210;2023-04-30T10:45:52;12.95;;;11.65;;
17790;SDS011;9019;48.132;-1.210;2023-04-30T10:48:21;12.32;;;11.02;;
17790;SDS011;9019;48.132;-1.210;2023-04-30T10:50:51;12.55;;;11.35;;
17790;SDS011;9019;48.132;-1.210;2023-04-30T10:53:18;11.52;;;10.43;;
17790;SDS011;9019;48.132;-1.210;2023-04-30T10:55:51;11.90;;;10.70;;
17790;SDS011;9019;48.132;-1.210;2023-04-30T10:58:23;13.07;;;11.75;;
17790;SDS011;9019;48.132;-1.210;2023-04-30T11:00:50;12.38;;;11.07;;
17790;SDS011;9019;48.132;-1.210;2023-04-30T11:03:27;11.80;;;10.57;;
17790;SDS011;9019;48.132;-1.210;2023-04-30T11:05:55;12.18;;;11.07;;
17790;SDS011;9019;48.132;-1.210;2023-04-30T11:08:31;12.98;;;11.68;;
17790;SDS011;9019;48.132;-1.210;2023-04-30T11:10:59;13.57;;;12.18;;
17790;SDS011;9019;48.132;-1.210;2023-04-30T11:13:34;11.70;;;10.50;;
17790;SDS011;9019;48.132;-1.210;2023-04-30T11:16:04;12.38;;;11.15;;
17790;SDS011;9019;48.132;-1.210;2023-04-30T11:18:31;12.40;;;11.15;;
17790;SDS011;9019;48.132;-1.210;2023-04-30T11:20:58;12.38;;;11.07;;
17790;SDS011;9019;48.132;-1.210;2023-04-30T11:23:29;13.57;;;11.43;;
17790;SDS011;9019;48.132;-1.210;2023-04-30T11:26:01;12.80;;;11.27;;
17790;SDS011;9019;48.132;-1.210;2023-04-30T11:28:31;13.20;;;11.82;;
17790;SDS011;9019;48.132;-1.210;2023-04-30T11:30:59;14.10;;;12.60;;
17790;SDS011;9019;48.132;-1.210;2023-04-30T11:33:27;13.68;;;12.27;;
17790;SDS011;9019;48.132;-1.210;2023-04-30T11:35:55;14.10;;;12.60;;
17790;SDS011;9019;48.132;-1.210;2023-04-30T11:38:24;14.15;;;12.70;;
17790;SDS011;9019;48.132;-1.210;2023-04-30T11:40:52;13.82;;;11.93;;
17790;SDS011;9019;48.132;-1.210;2023-04-30T11:43:21;13.05;;;11.65;;
17790;SDS011;9019;48.132;-1.210;2023-04-30T11:45:59;14.13;;;12.73;;
17790;SDS011;9019;48.132;-1.210;2023-04-30T11:48:29;14.07;;;12.63;;
17790;SDS011;9019;48.132;-1.210;2023-04-30T11:50:56;15.00;;;13.30;;
17790;SDS011;9019;48.132;-1.210;2023-04-30T11:53:25;15.38;;;13.77;;
17790;SDS011;9019;48.132;-1.210;2023-04-30T11:55:53;15.13;;;13.63;;
17790;SDS011;9019;48.132;-1.210;2023-04-30T11:58:22;14.93;;;13.43;;
17790;SDS011;9019;48.132;-1.210;2023-04-30T12:00:49;13.93;;;12.43;;
17790;SDS011;9019;48.132;-1.210;2023-04-30T12:03:17;15.13;;;13.52;;
17790;SDS011;9019;48.132;-1.210;2023-04-30T12:05:45;15.20;;;12.80;;
17790;SDS011;9019;48.132;-1.210;2023-04-30T12:08:12;14.88;;;13.27;;
17790;SDS011;9019;48.132;-1.210;2023-04-30T12:10:39;14.57;;;13.07;;
17790;SDS011;9019;48.132;-1.210;2023-04-30T12:13:07;16.00;;;13.88;;
17790;SDS011;9019;48.132;-1.210;2023-04-30T12:15:35;15.80;;;13.98;;
17790;SDS011;9019;48.132;-1.210;2023-04-30T12:18:09;16.25;;;14.20;;
17790;SDS011;9019;48.132;-1.210;2023-04-30T12:20:37;16.75;;;15.05;;
17790;SDS011;9019;48.132;-1.210;2023-04-30T12:23:05;17.52;;;15.20;;
17790;SDS011;9019;48.132;-1.210;2023-04-30T12:25:39;16.13;;;14.43;;
17790;SDS011;9019;48.132;-1.210;2023-04-30T12:28:06;16.38;;;14.68;;
17790;SDS011;9019;48.132;-1.210;2023-04-30T12:30:33;16.17;;;14.48;;
17790;SDS011;9019;48.132;-1.210;2023-04-30T12:33:03;18.45;;;15.90;;
17790;SDS011;9019;48.132;-1.210;2023-04-30T12:35:30;17.52;;;14.00;;
17790;SDS011;9019;48.132;-1.210;2023-04-30T12:38:00;15.55;;;13.55;;
17790;SDS011;9019;48.132;-1.210;2023-04-30T12:40:28;15.77;;;13.32;;
17790;SDS011;9019;48.132;-1.210;2023-04-30T12:42:58;16.50;;;14.48;;
17790;SDS011;9019;48.132;-1.210;2023-04-30T12:45:45;15.30;;;13.57;;
17790;SDS011;9019;48.132;-1.210;2023-04-30T12:48:14;14.27;;;12.38;;
17790;SDS011;9019;48.132;-1.210;2023-04-30T12:50:41;14.60;;;11.70;;
17790;SDS011;9019;48.132;-1.210;2023-04-30T12:53:08;13.23;;;11.80;;
17790;SDS011;9019;48.132;-1.210;2023-04-30T12:55:36;10.88;;;9.77;;
17790;SDS011;9019;48.132;-1.210;2023-04-30T12:58:05;11.40;;;10.20;;
17790;SDS011;9019;48.132;-1.210;2023-04-30T13:00:42;10.70;;;9.60;;
17790;SDS011;9019;48.132;-1.210;2023-04-30T13:03:09;9.82;;;8.82;;
17790;SDS011;9019;48.132;-1.210;2023-04-30T13:05:38;8.73;;;7.82;;
17790;SDS011;9019;48.132;-1.210;2023-04-30T13:08:06;9.52;;;7.57;;
17790;SDS011;9019;48.132;-1.210;2023-04-30T13:10:33;9.45;;;8.30;;
17790;SDS011;9019;48.132;-1.210;2023-04-30T13:13:01;7.95;;;6.45;;
17790;SDS011;9019;48.132;-1.210;2023-04-30T13:15:28;6.60;;;5.90;;
17790;SDS011;9019;48.132;-1.210;2023-04-30T13:17:55;6.43;;;5.80;;
17790;SDS011;9019;48.132;-1.210;2023-04-30T13:20:22;6.00;;;4.82;;
17790;SDS011;9019;48.132;-1.210;2023-04-30T13:22:51;7.35;;;4.88;;
17790;SDS011;9019;48.132;-1.210;2023-04-30T13:25:19;5.10;;;4.38;;
17790;SDS011;9019;48.132;-1.210;2023-04-30T13:27:46;5.90;;;5.00;;
17790;SDS011;9019;48.132;-1.210;2023-04-30T13:30:13;5.00;;;4.50;;
17790;SDS011;9019;48.132;-1.210;2023-04-30T13:32:40;5.20;;;4.30;;
17790;SDS011;9019;48.132;-1.210;2023-04-30T13:35:09;4.32;;;3.92;;
17790;SDS011;9019;48.132;-1.210;2023-04-30T13:37:36;4.07;;;3.67;;
17790;SDS011;9019;48.132;-1.210;2023-04-30T13:40:06;5.13;;;3.80;;
17790;SDS011;9019;48.132;-1.210;2023-04-30T13:42:35;4.38;;;3.97;;
17790;SDS011;9019;48.132;-1.210;2023-04-30T13:45:03;4.57;;;4.18;;
17790;SDS011;9019;48.132;-1.210;2023-04-30T13:47:30;3.72;;;3.40;;
17790;SDS011;9019;48.132;-1.210;2023-04-30T13:49:58;3.95;;;3.58;;
17790;SDS011;9019;48.132;-1.210;2023-04-30T13:52:25;5.32;;;4.63;;
17790;SDS011;9019;48.132;-1.210;2023-04-30T13:54:52;5.93;;;5.32;;
17790;SDS011;9019;48.132;-1.210;2023-04-30T13:57:22;6.28;;;5.68;;
17790;SDS011;9019;48.132;-1.210;2023-04-30T13:59:49;6.07;;;5.47;;
17790;SDS011;9019;48.132;-1.210;2023-04-30T14:02:17;5.10;;;4.60;;
17790;SDS011;9019;48.132;-1.210;2023-04-30T14:04:44;6.55;;;5.30;;
17790;SDS011;9019;48.132;-1.210;2023-04-30T14:07:11;6.53;;;4.70;;
17790;SDS011;9019;48.132;-1.210;2023-04-30T14:09:38;3.78;;;3.47;;
17790;SDS011;9019;48.132;-1.210;2023-04-30T14:12:05;4.90;;;4.13;;
17790;SDS011;9019;48.132;-1.210;2023-04-30T14:14:34;5.47;;;4.97;;
17790;SDS011;9019;48.132;-1.210;2023-04-30T14:17:01;5.80;;;4.43;;
17790;SDS011;9019;48.132;-1.210;2023-04-30T14:19:29;4.85;;;4.22;;
17790;SDS011;9019;48.132;-1.210;2023-04-30T14:21:56;4.68;;;4.28;;
17790;SDS011;9019;48.132;-1.210;2023-04-30T14:24:23;4.78;;;4.22;;
17790;SDS011;9019;48.132;-1.210;2023-04-30T14:26:52;6.95;;;4.50;;
17790;SDS011;9019;48.132;-1.210;2023-04-30T14:29:19;3.50;;;3.17;;
17790;SDS011;9019;48.132;-1.210;2023-04-30T14:31:48;3.40;;;3.00;;